createdAt,value
2019-05-21T03:38:08.658Z,12.85
2019-05-21T03:40:37.584Z,12.85
2019-05-21T03:43:06.835Z,12.85
2019-05-21T03:45:35.779Z,12.86
2019-05-21T03:48:06.178Z,12.87
2019-05-21T03:50:35.058Z,12.88
2019-05-21T03:53:04.374Z,12.87
2019-05-21T03:55:33.226Z,12.89
2019-05-21T03:58:02.318Z,12.89
2019-05-21T04:00:31.344Z,12.88
2019-05-21T04:03:07.500Z,12.88
2019-05-21T04:05:36.456Z,12.89
2019-05-21T04:08:05.591Z,12.90
2019-05-21T04:10:34.659Z,12.91
2019-05-21T04:13:07.289Z,12.93
2019-05-21T04:15:59.585Z,12.92
2019-05-21T04:18:36.885Z,12.94
2019-05-21T04:21:13.003Z,12.94
2019-05-21T04:23:41.892Z,12.95
2019-05-21T04:26:11.075Z,12.97
2019-05-21T04:28:41.231Z,12.96
2019-05-21T04:31:10.466Z,12.93
2019-05-21T04:33:43.378Z,12.95
2019-05-21T04:36:12.510Z,12.92
2019-05-21T04:38:41.525Z,12.91
2019-05-21T04:41:10.662Z,12.87
2019-05-21T04:43:39.551Z,12.87
2019-05-21T04:46:08.737Z,12.84
2019-05-21T04:48:37.528Z,12.82
2019-05-21T04:51:07.574Z,12.82
2019-05-21T04:53:39.193Z,12.80
2019-05-21T04:56:09.171Z,12.79
2019-05-21T04:58:37.962Z,12.81
2019-05-21T05:01:06.951Z,12.80
2019-05-21T05:03:35.891Z,12.79
2019-05-21T05:06:04.991Z,12.79
2019-05-21T05:30:36.094Z,12.75
2019-05-21T05:46:47.637Z,12.80
2019-05-21T05:52:15.531Z,12.83
2019-05-21T05:54:47.295Z,12.83
2019-05-21T05:57:16.134Z,12.85
2019-05-21T05:59:45.093Z,12.83
2019-05-21T06:18:28.372Z,12.72
2019-05-21T06:20:57.394Z,12.69
2019-05-21T06:23:29.186Z,12.69
2019-05-21T06:31:16.593Z,12.71
2019-05-21T06:33:55.417Z,12.73
2019-05-21T06:36:24.602Z,12.74
2019-05-21T06:38:58.214Z,12.75
2019-05-21T06:41:28.470Z,12.70
2019-05-21T06:43:57.595Z,12.70
2019-05-21T06:46:26.688Z,12.71
2019-05-21T06:49:01.045Z,12.74
2019-05-21T06:51:32.158Z,12.73
2019-05-21T06:54:01.445Z,12.71
2019-05-21T06:56:30.410Z,12.71
2019-05-21T06:59:01.704Z,12.67
2019-05-21T07:01:33.483Z,12.67
2019-05-21T07:04:06.878Z,12.68
2019-05-21T07:06:39.389Z,12.68
2019-05-21T07:09:08.702Z,12.68
2019-05-21T07:11:41.875Z,12.70
2019-05-21T07:16:54.020Z,12.72
2019-05-21T07:19:23.070Z,12.70
2019-05-21T07:24:28.568Z,12.71
2019-05-21T07:26:57.871Z,12.69
2019-05-21T07:29:27.088Z,12.67
2019-05-21T07:31:56.103Z,12.67
2019-05-21T07:34:25.137Z,12.62
2019-05-21T07:36:54.424Z,12.66
2019-05-21T07:39:23.564Z,12.67
2019-05-21T07:41:52.729Z,12.69
2019-05-21T07:44:21.714Z,12.75
2019-05-21T07:46:50.767Z,12.74
2019-05-21T07:49:19.911Z,12.79
2019-05-21T07:51:48.828Z,12.80
2019-05-21T07:54:18.217Z,12.83
2019-05-21T07:56:47.021Z,12.83
2019-05-21T07:59:15.894Z,12.82
2019-05-21T08:01:44.884Z,12.82
2019-05-21T08:04:13.927Z,12.79
2019-05-21T08:06:43.401Z,12.79
2019-05-21T08:09:14.597Z,12.79
2019-05-21T08:11:46.193Z,12.75
2019-05-21T08:14:14.309Z,12.70
2019-05-21T08:16:43.416Z,12.72
2019-05-21T08:19:12.412Z,12.75
2019-05-21T08:21:41.224Z,12.68
2019-05-21T08:24:10.507Z,12.67
2019-05-21T08:26:39.444Z,12.70
2019-05-21T08:29:08.843Z,12.70
2019-05-21T08:34:18.533Z,12.74
2019-05-21T08:36:48.208Z,12.67
2019-05-21T08:39:28.492Z,12.69
2019-05-21T08:41:48.596Z,12.68
2019-05-21T08:44:17.628Z,12.67
2019-05-21T08:46:46.661Z,12.62
2019-05-21T08:49:15.722Z,12.65
2019-05-21T08:51:44.745Z,12.66
2019-05-21T08:54:13.872Z,12.72
2019-05-21T08:56:43.989Z,12.78
2019-05-21T08:59:13.348Z,12.83
2019-05-21T09:01:42.292Z,12.80
2019-05-21T09:04:11.375Z,12.80
2019-05-21T09:06:40.461Z,12.71
2019-05-21T09:09:09.949Z,12.71
2019-05-21T09:11:38.942Z,12.74
2019-05-21T09:14:08.028Z,12.76
2019-05-21T09:16:36.950Z,12.75
2019-05-21T09:19:06.201Z,12.78
2019-05-21T09:21:35.283Z,12.79
2019-05-21T09:24:04.373Z,12.74
2019-05-21T09:26:33.431Z,12.78
2019-05-21T09:29:02.392Z,12.81
2019-05-21T09:31:33.566Z,12.80
2019-05-21T09:34:02.494Z,12.80
2019-05-21T09:36:31.602Z,12.77
2019-05-21T09:39:00.484Z,12.84
2019-05-21T09:41:29.471Z,12.83
2019-05-21T09:43:58.316Z,12.83
2019-05-21T09:46:27.244Z,12.86
2019-05-21T09:48:56.669Z,12.84
2019-05-21T09:51:26.893Z,12.79
2019-05-21T09:53:56.113Z,12.78
2019-05-21T09:56:34.422Z,12.86
2019-05-21T09:59:19.891Z,12.89
2019-05-21T10:01:50.338Z,12.82
2019-05-21T10:04:19.334Z,12.79
2019-05-21T10:06:48.173Z,12.79
2019-05-21T10:09:19.204Z,12.76
2019-05-21T10:11:48.004Z,12.78
2019-05-21T10:14:16.925Z,12.71
2019-05-21T10:16:45.660Z,12.78
2019-05-21T10:19:14.583Z,12.73
2019-05-21T10:21:43.397Z,12.79
2019-05-21T10:24:12.365Z,12.85
2019-05-21T10:26:41.821Z,12.88
2019-05-21T10:29:10.899Z,12.86
2019-05-21T10:31:39.789Z,12.87
2019-05-21T10:34:13.502Z,12.91
2019-05-21T10:36:42.779Z,12.96
2019-05-21T10:39:11.946Z,13.03
2019-05-21T10:41:40.864Z,13.09
2019-05-21T10:44:10.365Z,13.10
2019-05-21T10:46:39.611Z,13.21
2019-05-21T10:49:08.413Z,13.21
2019-05-21T10:51:38.419Z,13.27
2019-05-21T10:54:07.503Z,13.38
2019-05-21T11:23:26.481Z,14.10
2019-05-21T11:25:57.284Z,14.09
2019-05-21T11:33:53.546Z,13.99
2019-05-21T11:36:22.971Z,14.01
2019-05-21T11:38:52.165Z,14.05
2019-05-21T12:04:25.818Z,14.38
2019-05-21T12:06:55.375Z,14.36
2019-05-21T12:09:24.618Z,14.26
2019-05-21T12:11:53.754Z,14.34
2019-05-21T12:14:26.369Z,14.42
2019-05-21T12:25:02.541Z,14.46
2019-05-21T12:27:32.247Z,14.34
2019-05-21T12:30:01.653Z,14.31
2019-05-21T12:32:32.991Z,14.24
2019-05-21T12:35:02.002Z,14.16
2019-05-21T12:37:30.894Z,14.07
2019-05-21T12:40:00.077Z,14.06
2019-05-21T12:42:28.984Z,14.01
2019-05-21T12:44:57.950Z,13.92
2019-05-21T12:47:26.886Z,13.97
2019-05-21T12:49:55.834Z,14.02
2019-05-21T12:52:24.906Z,14.07
2019-05-21T12:55:09.805Z,14.07
2019-05-21T13:03:01.156Z,14.12
2019-05-21T13:05:30.416Z,14.04
2019-05-21T13:08:03.118Z,14.04
2019-05-21T13:10:32.514Z,14.10
2019-05-21T13:15:37.600Z,14.17
2019-05-21T13:18:06.665Z,14.14
2019-05-21T13:20:35.569Z,14.19
2019-05-21T13:23:04.682Z,14.23
2019-05-21T13:25:33.909Z,14.24
2019-05-21T13:28:02.659Z,14.22
2019-05-21T13:49:45.738Z,15.04
2019-05-21T13:52:15.212Z,14.92
2019-05-21T13:54:44.338Z,14.89
2019-05-21T13:57:13.647Z,14.86
2019-05-21T14:02:29.306Z,14.86
2019-05-21T14:04:58.573Z,14.87
2019-05-21T14:10:15.944Z,15.09
2019-05-21T14:15:09.449Z,15.18
2019-05-21T14:17:38.460Z,15.25
2019-05-21T14:20:07.993Z,15.18
2019-05-21T14:22:37.569Z,15.22
2019-05-21T14:27:45.268Z,15.10
2019-05-21T14:30:15.237Z,15.01
2019-05-21T14:32:46.509Z,14.94
2019-05-21T14:35:15.962Z,14.87
2019-05-21T14:37:45.122Z,14.87
2019-05-21T14:40:31.730Z,14.84
2019-05-21T14:42:59.837Z,14.83
2019-05-21T14:45:29.871Z,14.85
2019-05-21T14:47:58.078Z,14.85
2019-05-21T14:50:28.566Z,14.80
2019-05-21T14:52:57.868Z,14.81
2019-05-21T14:55:28.427Z,14.72
2019-05-21T14:58:00.991Z,14.71
2019-05-21T15:00:36.674Z,14.75
2019-05-21T15:03:07.192Z,14.75
2019-05-21T15:05:37.236Z,14.75
2019-05-21T15:08:06.308Z,14.74
2019-05-21T15:10:47.820Z,14.67
2019-05-21T15:13:08.055Z,14.65
2019-05-21T15:15:37.028Z,14.63
2019-05-21T15:18:06.093Z,14.60
2019-05-21T15:20:52.463Z,14.63
2019-05-21T15:23:22.347Z,14.59
2019-05-21T15:25:51.463Z,14.57
2019-05-21T15:28:20.330Z,14.63
2019-05-21T15:30:49.233Z,14.63
2019-05-21T15:33:18.040Z,14.66
2019-05-21T15:35:46.843Z,14.65
2019-05-21T15:38:15.816Z,14.66
2019-05-21T15:40:44.823Z,14.64
2019-05-21T15:43:15.314Z,14.64
2019-05-21T15:45:44.460Z,14.62
2019-05-21T15:50:49.593Z,14.64
2019-05-21T15:53:18.603Z,14.64
2019-05-21T15:55:50.466Z,14.69
2019-05-21T15:58:19.663Z,14.74
2019-05-21T16:00:48.839Z,14.86
2019-05-21T16:03:18.046Z,14.88
2019-05-21T16:05:48.002Z,14.95
2019-05-21T16:08:17.565Z,15.05
2019-05-21T16:10:46.394Z,15.22
2019-05-21T16:13:15.645Z,15.36
2019-05-21T16:15:45.657Z,15.50
2019-05-21T16:18:17.307Z,15.51
2019-05-21T16:20:46.326Z,15.49
2019-05-21T16:23:16.988Z,15.46
2019-05-21T16:36:29.024Z,15.30
2019-05-21T16:58:47.346Z,15.31
2019-05-21T17:01:17.179Z,15.28
2019-05-21T17:03:59.077Z,15.25
2019-05-21T17:06:18.426Z,15.22
2019-05-21T17:14:10.664Z,15.11
2019-05-21T17:16:39.692Z,15.12
2019-05-21T17:19:08.533Z,15.10
2019-05-21T17:21:38.050Z,15.09
2019-05-21T17:24:06.961Z,15.08
2019-05-21T17:26:35.873Z,15.10
2019-05-21T17:29:05.574Z,15.08
2019-05-21T17:31:34.322Z,15.08
2019-05-21T17:34:03.135Z,15.06
2019-05-21T17:36:32.060Z,15.03
2019-05-21T17:39:00.973Z,15.02
2019-05-21T17:41:29.838Z,15.00
2019-05-21T17:43:58.660Z,14.98
2019-05-21T17:46:27.677Z,14.95
2019-05-21T17:48:56.566Z,14.90
2019-05-21T17:51:28.200Z,14.89
2019-05-21T17:53:58.852Z,14.85
2019-05-21T17:56:27.745Z,14.81
2019-05-21T18:01:34.181Z,14.71
2019-05-21T18:04:03.480Z,14.70
2019-05-21T18:06:33.933Z,14.69
2019-05-21T18:09:06.685Z,14.68
2019-05-21T18:11:36.314Z,14.66
2019-05-21T18:14:06.654Z,14.67
2019-05-21T18:16:37.455Z,14.64
2019-05-21T18:19:08.499Z,14.63
2019-05-21T18:21:37.881Z,14.62
2019-05-21T18:24:06.807Z,14.61
2019-05-21T18:26:36.403Z,14.60
2019-05-21T18:29:05.496Z,14.61
2019-05-21T18:31:34.468Z,14.61
2019-05-21T18:34:06.040Z,14.60
2019-05-21T18:36:37.185Z,14.57
2019-05-21T18:39:19.438Z,14.56
2019-05-21T18:41:47.439Z,14.55
2019-05-21T18:44:16.789Z,14.52
2019-05-21T18:46:46.144Z,14.52
2019-05-21T18:49:15.177Z,14.50
2019-05-21T18:51:44.358Z,14.48
2019-05-21T18:54:13.193Z,14.45
2019-05-21T19:02:06.339Z,14.39
2019-05-21T19:04:37.268Z,14.39
2019-05-21T19:07:06.372Z,14.38
2019-05-21T19:09:40.097Z,14.37
2019-05-21T19:12:09.781Z,14.33
2019-05-21T19:17:14.331Z,14.29
2019-05-21T19:19:43.912Z,14.27
2019-05-21T19:22:14.581Z,14.24
2019-05-21T20:29:54.682Z,13.83
2019-05-21T20:32:24.619Z,13.82
2019-05-21T20:45:51.802Z,13.73
2019-05-21T21:57:04.503Z,13.55
2019-05-21T22:10:17.086Z,13.55
2019-05-21T22:12:48.800Z,13.53
2019-05-21T22:29:18.907Z,13.50
2019-05-21T22:31:49.580Z,13.48
2019-05-21T22:37:08.902Z,13.49
2019-05-21T22:47:55.038Z,13.45
2019-05-21T22:50:26.323Z,13.41
2019-05-21T23:01:04.569Z,13.34
2019-05-21T23:03:38.489Z,13.33
2019-05-21T23:11:40.544Z,13.29
2019-05-21T23:22:11.650Z,13.27
2019-05-21T23:27:24.615Z,13.24
2019-05-21T23:35:10.032Z,13.22
2019-05-21T23:37:44.651Z,13.24
2019-05-21T23:42:49.734Z,13.21
2019-05-21T23:45:20.462Z,13.22
2019-05-21T23:47:52.356Z,13.20
2019-05-21T23:50:24.123Z,13.22
2019-05-21T23:58:27.986Z,13.19
